createdAt,value
2023-05-21T00:00:02.978Z,14.80
2023-05-21T00:02:31.393Z,14.80
2023-05-21T00:05:00.153Z,14.80
2023-05-21T00:07:28.635Z,14.80
2023-05-21T00:09:57.011Z,14.80
2023-05-21T00:12:27.236Z,14.70
2023-05-21T00:14:55.883Z,14.70
2023-05-21T00:17:24.419Z,14.70
2023-05-21T00:19:52.907Z,14.70
2023-05-21T00:22:21.534Z,14.60
2023-05-21T00:24:49.824Z,14.60
2023-05-21T00:27:18.231Z,14.60
2023-05-21T00:29:47.857Z,14.60
2023-05-21T00:32:16.111Z,14.60
2023-05-21T00:34:44.715Z,14.50
2023-05-21T00:37:15.350Z,14.50
2023-05-21T00:39:43.604Z,14.50
2023-05-21T00:42:12.489Z,14.40
2023-05-21T00:44:41.378Z,14.40
2023-05-21T00:47:11.103Z,14.40
2023-05-21T00:49:39.573Z,14.40
2023-05-21T00:52:08.570Z,14.40
2023-05-21T00:54:37.167Z,14.30
2023-05-21T00:57:06.457Z,14.40
2023-05-21T00:59:34.937Z,14.40
2023-05-21T01:02:04.494Z,14.30
2023-05-21T01:04:34.147Z,14.30
2023-05-21T01:07:02.543Z,14.30
2023-05-21T01:09:30.717Z,14.20
2023-05-21T01:12:01.059Z,14.20
2023-05-21T01:14:29.528Z,14.10
2023-05-21T01:16:58.465Z,14.10
2023-05-21T01:19:27.175Z,14.10
2023-05-21T01:22:02.001Z,14.10
2023-05-21T01:24:31.850Z,14.10
2023-05-21T01:27:00.531Z,14.00
2023-05-21T01:29:28.739Z,13.90
2023-05-21T01:32:04.434Z,13.90
2023-05-21T01:34:38.048Z,13.80
2023-05-21T01:37:16.055Z,13.70
2023-05-21T01:39:53.208Z,13.70
2023-05-21T01:42:25.429Z,13.70
2023-05-21T01:44:57.013Z,13.70
2023-05-21T01:47:28.339Z,13.60
2023-05-21T01:49:57.810Z,13.60
2023-05-21T01:52:26.312Z,13.50
2023-05-21T01:54:57.931Z,13.60
2023-05-21T01:57:26.251Z,13.60
2023-05-21T01:59:55.325Z,13.50
2023-05-21T02:02:23.846Z,13.50
2023-05-21T02:04:52.290Z,13.50
2023-05-21T02:07:20.766Z,13.70
2023-05-21T02:09:49.365Z,13.60
2023-05-21T02:12:19.077Z,13.50
2023-05-21T02:14:50.727Z,13.50
2023-05-21T02:17:18.899Z,13.40
2023-05-21T02:19:47.087Z,13.40
2023-05-21T02:22:15.649Z,13.30
2023-05-21T02:24:44.039Z,13.40
2023-05-21T02:27:13.767Z,13.30
2023-05-21T02:29:43.798Z,13.30
2023-05-21T02:32:12.040Z,13.40
2023-05-21T02:34:42.464Z,13.30
2023-05-21T02:37:11.154Z,13.20
2023-05-21T02:39:39.435Z,13.20
2023-05-21T02:42:07.715Z,13.20
2023-05-21T02:44:36.492Z,13.20
2023-05-21T02:47:06.668Z,13.10
2023-05-21T02:49:35.079Z,13.10
2023-05-21T02:52:03.492Z,13.10
2023-05-21T02:54:31.822Z,13.10
2023-05-21T02:57:00.482Z,13.10
2023-05-21T02:59:29.050Z,13.00
2023-05-21T03:01:57.377Z,13.00
2023-05-21T03:04:28.561Z,13.00
2023-05-21T03:06:57.840Z,13.00
2023-05-21T03:09:26.336Z,13.00
2023-05-21T03:11:54.806Z,13.10
2023-05-21T03:14:23.472Z,13.00
2023-05-21T03:16:52.704Z,13.00
2023-05-21T03:19:21.569Z,12.90
2023-05-21T03:21:51.799Z,12.90
2023-05-21T03:24:20.188Z,12.90
2023-05-21T03:26:50.402Z,12.80
2023-05-21T03:29:18.805Z,12.80
2023-05-21T03:31:47.210Z,12.80
2023-05-21T03:34:16.234Z,12.80
2023-05-21T03:36:44.715Z,12.80
2023-05-21T03:39:14.668Z,12.70
2023-05-21T03:41:42.939Z,12.70
2023-05-21T03:44:11.347Z,12.80
2023-05-21T03:46:39.877Z,12.80
2023-05-21T03:49:08.070Z,12.80
2023-05-21T03:51:36.498Z,12.70
2023-05-21T03:54:04.929Z,12.70
2023-05-21T03:56:34.445Z,12.70
2023-05-21T03:59:02.709Z,12.80
2023-05-21T04:01:30.971Z,12.80
2023-05-21T04:03:59.242Z,12.80
2023-05-21T04:06:28.242Z,12.80
2023-05-21T04:08:56.842Z,12.80
2023-05-21T04:11:25.000Z,12.70
2023-05-21T04:13:54.739Z,12.70
2023-05-21T04:18:55.626Z,12.60
2023-05-21T04:21:24.169Z,12.70
2023-05-21T04:23:54.013Z,12.70
2023-05-21T04:26:23.229Z,12.70
2023-05-21T04:28:51.429Z,12.60
2023-05-21T04:31:21.191Z,12.60
2023-05-21T04:33:49.647Z,12.60
2023-05-21T04:36:18.373Z,12.70
2023-05-21T04:38:49.883Z,12.70
2023-05-21T04:41:19.291Z,12.60
2023-05-21T04:43:47.418Z,12.70
2023-05-21T04:46:15.679Z,12.70
2023-05-21T04:48:47.088Z,12.70
2023-05-21T04:51:15.371Z,12.70
2023-05-21T04:53:43.515Z,12.70
2023-05-21T04:56:12.110Z,12.80
2023-05-21T04:58:40.761Z,12.90
2023-05-21T05:01:09.113Z,13.00
2023-05-21T05:03:37.797Z,13.00
2023-05-21T05:06:08.871Z,13.00
2023-05-21T05:08:37.066Z,13.00
2023-05-21T05:11:05.564Z,13.20
2023-05-21T05:13:35.411Z,13.30
2023-05-21T05:16:03.684Z,13.30
2023-05-21T05:18:32.174Z,13.40
2023-05-21T05:21:00.601Z,13.50
2023-05-21T05:23:30.095Z,13.50
2023-05-21T05:25:58.737Z,13.60
2023-05-21T05:28:26.950Z,13.70
2023-05-21T05:30:55.601Z,13.80
2023-05-21T05:33:24.130Z,13.90
2023-05-21T05:35:52.675Z,14.10
2023-05-21T05:38:20.858Z,14.20
2023-05-21T05:40:50.679Z,14.30
2023-05-21T05:43:19.061Z,14.50
2023-05-21T05:45:47.491Z,14.60
2023-05-21T05:48:17.186Z,14.70
2023-05-21T05:50:46.479Z,14.80
2023-05-21T05:53:14.970Z,14.80
2023-05-21T05:55:43.325Z,14.90
2023-05-21T05:58:13.261Z,15.10
2023-05-21T06:00:41.441Z,15.20
2023-05-21T06:03:09.936Z,15.50
2023-05-21T06:05:38.886Z,15.70
2023-05-21T06:08:07.541Z,15.90
2023-05-21T06:10:35.833Z,16.10
2023-05-21T06:13:04.123Z,16.20
2023-05-21T06:15:35.492Z,16.40
2023-05-21T06:18:04.421Z,16.60
2023-05-21T06:20:32.857Z,16.80
2023-05-21T06:23:01.088Z,16.90
2023-05-21T06:25:29.297Z,16.90
2023-05-21T06:27:58.081Z,17.00
2023-05-21T06:30:26.331Z,17.30
2023-05-21T06:32:56.299Z,17.50
2023-05-21T06:35:24.911Z,17.70
2023-05-21T06:37:53.136Z,17.90
2023-05-21T06:40:21.982Z,18.00
2023-05-21T06:42:50.330Z,18.00
2023-05-21T06:45:18.509Z,18.10
2023-05-21T06:47:46.906Z,18.20
2023-05-21T06:50:16.693Z,18.30
2023-05-21T06:52:44.900Z,18.40
2023-05-21T06:55:13.350Z,18.70
2023-05-21T06:57:41.599Z,18.80
2023-05-21T07:00:10.870Z,18.80
2023-05-21T07:02:39.247Z,18.90
2023-05-21T07:05:08.094Z,19.10
2023-05-21T07:07:37.644Z,19.30
2023-05-21T07:10:06.962Z,19.50
2023-05-21T07:12:35.406Z,19.70
2023-05-21T07:15:03.822Z,19.70
2023-05-21T07:17:32.301Z,19.90
2023-05-21T07:20:00.619Z,20.00
2023-05-21T07:22:28.920Z,20.10
2023-05-21T07:24:58.592Z,20.30
2023-05-21T07:27:27.413Z,20.40
2023-05-21T07:29:55.665Z,20.60
2023-05-21T07:32:23.992Z,20.90
2023-05-21T07:34:54.214Z,21.10
2023-05-21T07:37:22.699Z,21.10
2023-05-21T07:39:50.918Z,20.90
2023-05-21T07:42:20.651Z,20.80
2023-05-21T07:44:48.870Z,20.60
2023-05-21T07:47:17.263Z,20.70
2023-05-21T07:49:45.645Z,21.00
2023-05-21T07:52:13.802Z,21.20
2023-05-21T07:54:42.151Z,21.20
2023-05-21T07:57:10.437Z,21.50
2023-05-21T07:59:39.971Z,21.60
2023-05-21T08:02:09.190Z,22.00
2023-05-21T08:04:40.861Z,21.90
2023-05-21T08:07:10.946Z,22.20
2023-05-21T08:09:39.184Z,22.40
2023-05-21T08:12:08.479Z,22.50
2023-05-21T08:14:36.834Z,22.80
2023-05-21T08:17:06.796Z,23.00
2023-05-21T08:19:35.039Z,23.10
2023-05-21T08:22:03.859Z,23.40
2023-05-21T08:24:32.150Z,23.60
2023-05-21T08:27:00.550Z,23.80
2023-05-21T08:29:29.037Z,24.00
2023-05-21T08:31:57.402Z,24.10
2023-05-21T08:34:27.048Z,24.30
2023-05-21T08:36:55.900Z,24.30
2023-05-21T08:39:24.063Z,24.20
2023-05-21T08:41:56.592Z,24.30
2023-05-21T08:44:28.383Z,24.60
2023-05-21T08:46:58.966Z,24.70
2023-05-21T08:49:31.923Z,24.70
2023-05-21T08:52:01.258Z,24.70
2023-05-21T08:54:29.903Z,24.50
2023-05-21T08:56:59.467Z,24.50
2023-05-21T08:59:28.700Z,24.40
2023-05-21T09:01:58.366Z,23.90
2023-05-21T09:04:29.521Z,23.70
2023-05-21T09:06:59.386Z,23.60
2023-05-21T09:09:34.051Z,23.60
2023-05-21T09:12:02.498Z,23.40
2023-05-21T09:14:31.499Z,23.20
2023-05-21T09:17:00.004Z,22.80
2023-05-21T09:19:32.395Z,22.80
2023-05-21T09:22:04.281Z,23.00
2023-05-21T09:24:36.062Z,23.30
2023-05-21T09:27:08.762Z,23.60
2023-05-21T09:29:37.726Z,23.80
2023-05-21T09:32:09.074Z,23.90
2023-05-21T09:34:39.087Z,23.70
2023-05-21T09:37:23.727Z,23.70
2023-05-21T09:39:56.194Z,23.40
2023-05-21T09:42:24.462Z,23.30
2023-05-21T09:44:54.085Z,23.70
2023-05-21T09:47:22.935Z,24.30
2023-05-21T09:49:52.604Z,24.40
2023-05-21T09:52:28.745Z,24.70
2023-05-21T09:54:57.013Z,25.00
2023-05-21T09:57:26.417Z,25.50
2023-05-21T09:59:56.134Z,26.00
2023-05-21T10:02:26.856Z,26.30
2023-05-21T10:04:58.003Z,26.40
2023-05-21T10:07:28.728Z,26.30
2023-05-21T10:09:59.524Z,25.80
2023-05-21T10:12:31.621Z,25.50
2023-05-21T10:15:02.350Z,25.30
2023-05-21T10:17:31.870Z,25.20
2023-05-21T10:20:02.560Z,25.10
2023-05-21T10:22:31.516Z,25.00
2023-05-21T10:25:01.123Z,25.10
2023-05-21T10:27:32.343Z,25.40
2023-05-21T10:30:01.666Z,25.40
2023-05-21T10:32:29.990Z,25.30
2023-05-21T10:35:01.347Z,25.10
2023-05-21T10:37:31.641Z,24.60
2023-05-21T10:39:59.904Z,24.30
2023-05-21T10:42:51.647Z,24.00
2023-05-21T10:45:28.317Z,23.90
2023-05-21T10:48:24.365Z,24.20
2023-05-21T10:51:19.960Z,24.00
2023-05-21T10:54:08.314Z,23.90
2023-05-21T10:56:41.649Z,23.80
2023-05-21T10:59:15.379Z,24.00
2023-05-21T11:01:45.303Z,24.50
2023-05-21T11:04:15.817Z,24.80
2023-05-21T11:06:49.635Z,25.00
2023-05-21T11:09:20.049Z,24.90
2023-05-21T11:11:52.440Z,24.70
2023-05-21T11:14:36.300Z,24.50
2023-05-21T11:17:06.265Z,24.50
2023-05-21T11:19:38.156Z,24.50
2023-05-21T11:22:11.955Z,24.50
2023-05-21T11:24:42.612Z,24.30
2023-05-21T11:27:12.902Z,24.10
2023-05-21T11:29:44.162Z,24.10
2023-05-21T11:32:15.316Z,24.00
2023-05-21T11:34:47.017Z,24.00
2023-05-21T11:37:28.232Z,23.90
2023-05-21T11:40:16.708Z,23.80
2023-05-21T11:42:49.857Z,23.50
2023-05-21T11:45:20.507Z,23.30
2023-05-21T11:47:49.503Z,23.40
2023-05-21T11:50:18.650Z,23.50
2023-05-21T11:52:47.193Z,23.50
2023-05-21T11:55:17.438Z,23.40
2023-05-21T11:57:48.106Z,23.10
2023-05-21T12:00:17.604Z,23.00
2023-05-21T12:02:47.815Z,22.80
2023-05-21T12:05:16.498Z,22.70
2023-05-21T12:07:50.395Z,22.80
2023-05-21T12:10:23.313Z,23.00
2023-05-21T12:12:55.869Z,23.20
2023-05-21T12:15:25.932Z,23.30
2023-05-21T12:17:54.642Z,23.60
2023-05-21T12:20:24.008Z,23.80
2023-05-21T12:22:52.419Z,23.80
2023-05-21T12:25:22.942Z,23.60
2023-05-21T12:27:52.839Z,23.60
2023-05-21T12:30:22.109Z,23.50
2023-05-21T12:32:50.900Z,23.40
2023-05-21T12:35:24.201Z,23.50
2023-05-21T12:37:53.249Z,23.50
2023-05-21T12:40:22.962Z,23.70
2023-05-21T12:42:52.239Z,23.80
2023-05-21T12:45:22.815Z,23.90
2023-05-21T12:47:56.553Z,23.90
2023-05-21T12:50:25.318Z,23.60
2023-05-21T12:52:57.164Z,23.50
2023-05-21T12:55:27.601Z,23.10
2023-05-21T12:58:05.348Z,23.10
2023-05-21T13:00:34.854Z,22.90
2023-05-21T13:03:06.781Z,22.90
2023-05-21T13:05:35.908Z,22.90
2023-05-21T13:08:04.448Z,22.70
2023-05-21T13:10:34.273Z,22.70
2023-05-21T13:13:02.955Z,22.50
2023-05-21T13:15:31.609Z,22.40
2023-05-21T13:18:01.495Z,22.50
2023-05-21T13:20:30.292Z,22.50
2023-05-21T13:22:58.801Z,22.50
2023-05-21T13:25:29.327Z,22.40
2023-05-21T13:28:02.563Z,22.50
2023-05-21T13:30:31.318Z,22.50
2023-05-21T13:33:00.244Z,22.60
2023-05-21T13:35:28.836Z,22.60
2023-05-21T13:37:57.057Z,22.60
2023-05-21T13:40:25.493Z,22.50
2023-05-21T13:42:53.744Z,22.50
2023-05-21T13:45:29.131Z,22.60
2023-05-21T13:47:58.112Z,22.60
2023-05-21T13:50:26.900Z,22.60
2023-05-21T13:52:55.163Z,22.50
2023-05-21T13:55:24.030Z,22.50
2023-05-21T13:57:52.335Z,22.70
2023-05-21T14:00:22.166Z,22.70
2023-05-21T14:02:50.958Z,22.50
2023-05-21T14:05:19.501Z,22.40
2023-05-21T14:07:48.471Z,22.40
2023-05-21T14:10:17.191Z,22.40
2023-05-21T14:12:47.338Z,22.50
2023-05-21T14:15:17.288Z,22.40
2023-05-21T14:17:47.373Z,22.40
2023-05-21T14:20:15.647Z,22.60
2023-05-21T14:22:43.915Z,22.50
2023-05-21T14:25:12.761Z,22.70
2023-05-21T14:27:41.127Z,22.60
2023-05-21T14:30:10.640Z,22.70
2023-05-21T14:32:39.188Z,22.70
2023-05-21T14:35:09.745Z,22.70
2023-05-21T14:37:38.039Z,22.70
2023-05-21T14:40:08.407Z,22.70
2023-05-21T14:42:37.154Z,22.70
2023-05-21T14:45:18.119Z,22.70
2023-05-21T14:47:48.635Z,23.00
2023-05-21T14:50:19.300Z,23.00
2023-05-21T14:52:47.802Z,23.00
2023-05-21T14:55:18.699Z,22.90
2023-05-21T14:57:46.945Z,22.80
2023-05-21T15:00:15.851Z,23.00
2023-05-21T15:02:44.529Z,23.10
2023-05-21T15:05:12.849Z,22.90
2023-05-21T15:07:42.615Z,22.70
2023-05-21T15:10:11.579Z,22.70
2023-05-21T15:12:40.095Z,22.60
2023-05-21T15:15:09.564Z,22.60
2023-05-21T15:17:38.001Z,22.60
2023-05-21T15:20:07.487Z,22.50
2023-05-21T15:22:36.160Z,22.60
2023-05-21T15:25:06.917Z,22.60
2023-05-21T15:27:35.701Z,22.70
2023-05-21T15:30:05.000Z,22.70
2023-05-21T15:32:33.189Z,22.60
2023-05-21T15:35:01.585Z,22.80
2023-05-21T15:37:32.451Z,22.70
2023-05-21T15:40:00.976Z,22.70
2023-05-21T15:42:31.934Z,22.80
2023-05-21T15:45:00.518Z,22.80
2023-05-21T15:47:28.735Z,22.80
2023-05-21T15:49:58.780Z,22.60
2023-05-21T15:52:27.278Z,22.60
2023-05-21T15:54:55.599Z,22.60
2023-05-21T15:57:24.032Z,22.70
2023-05-21T15:59:54.287Z,22.70
2023-05-21T16:02:22.567Z,22.70
2023-05-21T16:04:52.234Z,22.70
2023-05-21T16:07:21.270Z,22.70
2023-05-21T16:09:49.481Z,22.80
2023-05-21T16:12:17.881Z,22.80
2023-05-21T16:14:46.541Z,22.70
2023-05-21T16:17:16.589Z,22.80
2023-05-21T16:19:44.944Z,22.70
2023-05-21T16:22:13.343Z,22.60
2023-05-21T16:24:41.705Z,22.60
2023-05-21T16:27:10.040Z,22.50
2023-05-21T16:29:40.719Z,22.60
2023-05-21T16:32:10.689Z,22.40
2023-05-21T16:34:40.629Z,22.20
2023-05-21T16:37:09.984Z,22.00
2023-05-21T16:39:38.845Z,22.00
2023-05-21T16:42:07.493Z,21.90
2023-05-21T16:44:37.060Z,21.80
2023-05-21T16:47:05.588Z,21.80
2023-05-21T16:49:34.260Z,21.80
2023-05-21T16:52:04.071Z,21.80
2023-05-21T16:54:32.254Z,21.80
2023-05-21T16:57:00.790Z,21.70
2023-05-21T16:59:29.644Z,21.80
2023-05-21T17:01:58.122Z,21.60
2023-05-21T17:04:26.712Z,21.70
2023-05-21T17:06:54.995Z,21.70
2023-05-21T17:09:24.691Z,21.50
2023-05-21T17:11:53.286Z,21.40
2023-05-21T17:14:32.998Z,21.50
2023-05-21T17:17:02.433Z,21.30
2023-05-21T17:19:30.899Z,21.30
2023-05-21T17:21:59.601Z,21.10
2023-05-21T17:24:29.399Z,20.90
2023-05-21T17:26:57.804Z,20.60
2023-05-21T17:29:26.171Z,20.50
2023-05-21T17:31:54.646Z,20.40
2023-05-21T17:34:24.632Z,20.30
2023-05-21T17:36:52.947Z,20.30
2023-05-21T17:39:21.421Z,20.20
2023-05-21T17:41:51.501Z,20.20
2023-05-21T17:44:20.587Z,20.30
2023-05-21T17:46:50.662Z,20.00
2023-05-21T17:49:19.253Z,20.00
2023-05-21T17:51:48.038Z,19.90
2023-05-21T17:54:16.675Z,19.90
2023-05-21T17:56:46.411Z,19.50
2023-05-21T17:59:17.138Z,19.50
2023-05-21T18:01:45.711Z,19.40
2023-05-21T18:04:14.380Z,19.40
2023-05-21T18:06:42.691Z,19.40
2023-05-21T18:09:14.513Z,19.30
2023-05-21T18:11:44.751Z,19.20
2023-05-21T18:14:13.216Z,19.10
2023-05-21T18:16:43.328Z,19.00
2023-05-21T18:19:12.010Z,18.70
2023-05-21T18:21:41.657Z,18.70
2023-05-21T18:24:10.275Z,18.60
2023-05-21T18:26:38.901Z,18.50
2023-05-21T18:29:07.236Z,18.40
2023-05-21T18:31:35.866Z,18.40
2023-05-21T18:34:05.889Z,18.30
2023-05-21T18:36:39.173Z,18.20
2023-05-21T18:39:08.284Z,18.10
2023-05-21T18:41:37.482Z,18.20
2023-05-21T18:44:06.466Z,18.00
2023-05-21T18:46:34.915Z,17.90
2023-05-21T18:49:03.312Z,17.90
2023-05-21T18:51:33.251Z,17.80
2023-05-21T18:54:01.662Z,17.70
2023-05-21T18:56:29.971Z,17.60
2023-05-21T18:58:58.854Z,17.60
2023-05-21T19:01:27.569Z,17.60
2023-05-21T19:03:55.861Z,17.50
2023-05-21T19:06:25.672Z,17.40
2023-05-21T19:08:55.795Z,17.20
2023-05-21T19:11:24.627Z,17.20
2023-05-21T19:13:52.932Z,17.10
2023-05-21T19:16:21.314Z,17.00
2023-05-21T19:18:49.708Z,16.90
2023-05-21T19:21:18.178Z,16.70
2023-05-21T19:23:53.421Z,16.70
2023-05-21T19:26:24.073Z,16.70
2023-05-21T19:28:53.865Z,16.60
2023-05-21T19:31:22.805Z,16.50
2023-05-21T19:33:51.428Z,16.40
2023-05-21T19:36:19.792Z,16.30
2023-05-21T19:38:49.237Z,16.00
2023-05-21T19:41:17.748Z,15.90
2023-05-21T19:43:47.584Z,15.80
2023-05-21T19:46:19.247Z,15.70
2023-05-21T19:48:49.016Z,15.60
2023-05-21T19:51:17.754Z,15.60
2023-05-21T19:53:46.110Z,15.50
2023-05-21T19:56:14.624Z,15.50
2023-05-21T19:58:47.180Z,15.40
2023-05-21T20:01:17.460Z,15.50
2023-05-21T20:03:46.325Z,15.50
2023-05-21T20:06:16.963Z,15.30
2023-05-21T20:08:45.319Z,15.20
2023-05-21T20:11:13.596Z,15.10
2023-05-21T20:13:42.584Z,15.00
2023-05-21T20:16:12.888Z,15.00
2023-05-21T20:18:46.807Z,15.10
2023-05-21T20:21:15.602Z,15.10
2023-05-21T20:23:43.800Z,15.10
2023-05-21T20:26:12.209Z,15.00
2023-05-21T20:28:41.465Z,15.00
2023-05-21T20:31:09.844Z,15.10
2023-05-21T20:33:40.051Z,15.10
2023-05-21T20:36:10.350Z,15.10
2023-05-21T20:38:38.665Z,15.10
2023-05-21T20:41:06.841Z,15.20
2023-05-21T20:43:37.469Z,15.20
2023-05-21T20:46:05.952Z,15.20
2023-05-21T20:48:34.270Z,15.20
2023-05-21T20:51:04.719Z,15.10
2023-05-21T20:53:34.351Z,15.00
2023-05-21T20:56:02.744Z,14.90
2023-05-21T20:58:31.876Z,14.90
2023-05-21T21:01:01.914Z,14.80
2023-05-21T21:03:33.935Z,14.70
2023-05-21T21:06:03.309Z,14.80
2023-05-21T21:08:34.836Z,14.70
2023-05-21T21:11:03.045Z,14.70
2023-05-21T21:13:31.321Z,14.70
2023-05-21T21:15:59.879Z,14.60
2023-05-21T21:18:28.156Z,14.50
2023-05-21T21:20:56.568Z,14.50
2023-05-21T21:23:25.503Z,14.40
2023-05-21T21:25:55.067Z,14.40
2023-05-21T21:28:23.401Z,14.40
2023-05-21T21:30:51.743Z,14.30
2023-05-21T21:33:19.961Z,14.30
2023-05-21T21:35:48.171Z,14.20
2023-05-21T21:38:16.572Z,14.20
2023-05-21T21:40:44.820Z,14.00
2023-05-21T21:43:14.389Z,14.00
2023-05-21T21:45:42.975Z,14.00
2023-05-21T21:48:11.633Z,13.80
2023-05-21T21:50:40.115Z,13.90
2023-05-21T21:53:10.145Z,13.80
2023-05-21T21:55:38.497Z,13.80
2023-05-21T21:58:06.803Z,13.80
2023-05-21T22:00:37.257Z,13.80
2023-05-21T22:03:05.899Z,13.70
2023-05-21T22:05:34.182Z,13.60
2023-05-21T22:08:04.179Z,13.50
2023-05-21T22:10:33.649Z,13.40
2023-05-21T22:13:02.737Z,13.30
2023-05-21T22:15:32.409Z,13.20
2023-05-21T22:18:02.608Z,13.20
2023-05-21T22:20:30.918Z,13.30
2023-05-21T22:23:00.130Z,13.20
2023-05-21T22:25:28.331Z,13.20
2023-05-21T22:27:56.542Z,13.20
2023-05-21T22:30:24.905Z,13.10
2023-05-21T22:32:53.122Z,13.10
2023-05-21T22:35:22.804Z,13.10
2023-05-21T22:37:51.552Z,13.10
2023-05-21T22:40:19.818Z,13.10
2023-05-21T22:42:48.266Z,13.10
2023-05-21T22:45:17.299Z,13.20
2023-05-21T22:47:45.532Z,13.20
2023-05-21T22:50:14.002Z,13.20
2023-05-21T22:52:43.914Z,13.10
2023-05-21T22:55:12.317Z,13.10
2023-05-21T22:57:40.641Z,13.10
2023-05-21T23:00:11.106Z,13.10
2023-05-21T23:02:39.743Z,13.10
2023-05-21T23:05:08.629Z,13.00
2023-05-21T23:07:37.350Z,13.10
2023-05-21T23:10:07.971Z,13.10
2023-05-21T23:12:36.351Z,13.20
2023-05-21T23:15:05.832Z,13.10
2023-05-21T23:17:34.052Z,13.10
2023-05-21T23:20:02.433Z,13.10
2023-05-21T23:22:31.805Z,13.20
2023-05-21T23:24:59.993Z,13.10
2023-05-21T23:27:29.695Z,13.10
2023-05-21T23:29:58.112Z,13.00
2023-05-21T23:32:27.383Z,13.00
2023-05-21T23:34:56.907Z,13.00
2023-05-21T23:37:25.330Z,13.10
2023-05-21T23:39:53.523Z,13.00
2023-05-21T23:42:21.799Z,13.00
2023-05-21T23:44:51.560Z,13.00
2023-05-21T23:47:19.928Z,13.00
2023-05-21T23:49:48.094Z,13.10
2023-05-21T23:52:17.529Z,13.00
2023-05-21T23:54:46.170Z,13.00
2023-05-21T23:57:14.388Z,12.90
2023-05-21T23:59:43.037Z,13.00
